sensor_id;sensor_type;location;lat;lon;timestamp;P1;durP1;ratioP1;P2;durP2;ratioP2
15096;SDS011;7649;52.084;7.478;2023-02-07T00:01:06;20.03;;;13.07;;
15096;SDS011;7649;52.084;7.478;2023-02-07T00:03:35;21.37;;;12.53;;
15096;SDS011;7649;52.084;7.478;2023-02-07T00:06:05;20.17;;;12.47;;
15096;SDS011;7649;52.084;7.478;2023-02-07T00:08:34;18.13;;;12.03;;
15096;SDS011;7649;52.084;7.478;2023-02-07T00:11:03;19.83;;;12.90;;
15096;SDS011;7649;52.084;7.478;2023-02-07T00:13:31;20.97;;;11.93;;
15096;SDS011;7649;52.084;7.478;2023-02-07T00:16:02;20.73;;;12.57;;
15096;SDS011;7649;52.084;7.478;2023-02-07T00:18:31;21.80;;;12.67;;
15096;SDS011;7649;52.084;7.478;2023-02-07T00:21:01;16.43;;;12.13;;
15096;SDS011;7649;52.084;7.478;2023-02-07T00:23:30;19.40;;;12.47;;
15096;SDS011;7649;52.084;7.478;2023-02-07T00:25:59;17.70;;;12.30;;
15096;SDS011;7649;52.084;7.478;2023-02-07T00:28:28;19.90;;;11.70;;
15096;SDS011;7649;52.084;7.478;2023-02-07T00:31:05;18.83;;;12.30;;
15096;SDS011;7649;52.084;7.478;2023-02-07T00:33:34;20.87;;;12.53;;
15096;SDS011;7649;52.084;7.478;2023-02-07T00:36:04;18.50;;;12.47;;
15096;SDS011;7649;52.084;7.478;2023-02-07T00:38:33;21.47;;;12.93;;
15096;SDS011;7649;52.084;7.478;2023-02-07T00:41:02;15.53;;;12.00;;
15096;SDS011;7649;52.084;7.478;2023-02-07T00:43:31;17.33;;;11.70;;
15096;SDS011;7649;52.084;7.478;2023-02-07T00:46:00;15.50;;;11.80;;
15096;SDS011;7649;52.084;7.478;2023-02-07T00:48:32;19.10;;;12.23;;
15096;SDS011;7649;52.084;7.478;2023-02-07T00:51:00;17.17;;;12.17;;
15096;SDS011;7649;52.084;7.478;2023-02-07T00:53:29;19.20;;;11.90;;
15096;SDS011;7649;52.084;7.478;2023-02-07T00:55:57;19.13;;;12.40;;
15096;SDS011;7649;52.084;7.478;2023-02-07T00:58:25;19.00;;;12.23;;
15096;SDS011;7649;52.084;7.478;2023-02-07T01:00:54;20.77;;;12.60;;
15096;SDS011;7649;52.084;7.478;2023-02-07T01:03:22;17.83;;;12.00;;
15096;SDS011;7649;52.084;7.478;2023-02-07T01:05:52;18.00;;;11.47;;
15096;SDS011;7649;52.084;7.478;2023-02-07T01:08:21;17.13;;;12.47;;
15096;SDS011;7649;52.084;7.478;2023-02-07T01:10:49;15.43;;;12.00;;
15096;SDS011;7649;52.084;7.478;2023-02-07T01:13:17;17.47;;;12.10;;
15096;SDS011;7649;52.084;7.478;2023-02-07T01:15:46;16.20;;;12.37;;
15096;SDS011;7649;52.084;7.478;2023-02-07T01:18:15;15.37;;;11.83;;
15096;SDS011;7649;52.084;7.478;2023-02-07T01:20:44;19.07;;;11.80;;
15096;SDS011;7649;52.084;7.478;2023-02-07T01:23:14;18.03;;;12.03;;
15096;SDS011;7649;52.084;7.478;2023-02-07T01:25:42;17.17;;;12.37;;
15096;SDS011;7649;52.084;7.478;2023-02-07T01:28:11;15.43;;;12.10;;
15096;SDS011;7649;52.084;7.478;2023-02-07T01:30:39;16.60;;;12.30;;
15096;SDS011;7649;52.084;7.478;2023-02-07T01:33:08;18.20;;;12.43;;
15096;SDS011;7649;52.084;7.478;2023-02-07T01:35:37;20.83;;;12.57;;
15096;SDS011;7649;52.084;7.478;2023-02-07T01:38:05;15.43;;;11.73;;
15096;SDS011;7649;52.084;7.478;2023-02-07T01:40:36;15.17;;;11.30;;
15096;SDS011;7649;52.084;7.478;2023-02-07T01:43:05;18.13;;;12.30;;
15096;SDS011;7649;52.084;7.478;2023-02-07T01:45:34;19.00;;;12.70;;
15096;SDS011;7649;52.084;7.478;2023-02-07T01:48:04;17.20;;;11.83;;
15096;SDS011;7649;52.084;7.478;2023-02-07T01:50:33;18.40;;;12.40;;
15096;SDS011;7649;52.084;7.478;2023-02-07T01:53:02;18.17;;;12.40;;
15096;SDS011;7649;52.084;7.478;2023-02-07T01:55:32;16.10;;;12.33;;
15096;SDS011;7649;52.084;7.478;2023-02-07T01:58:04;14.70;;;12.30;;
15096;SDS011;7649;52.084;7.478;2023-02-07T02:00:33;16.53;;;12.00;;
15096;SDS011;7649;52.084;7.478;2023-02-07T02:03:02;16.40;;;12.03;;
15096;SDS011;7649;52.084;7.478;2023-02-07T02:05:31;14.50;;;11.37;;
15096;SDS011;7649;52.084;7.478;2023-02-07T02:08:01;17.13;;;11.17;;
15096;SDS011;7649;52.084;7.478;2023-02-07T02:10:31;14.87;;;11.73;;
15096;SDS011;7649;52.084;7.478;2023-02-07T02:13:12;20.77;;;11.60;;
15096;SDS011;7649;52.084;7.478;2023-02-07T02:15:46;14.70;;;12.20;;
15096;SDS011;7649;52.084;7.478;2023-02-07T02:21:11;16.47;;;11.70;;
15096;SDS011;7649;52.084;7.478;2023-02-07T02:23:51;14.40;;;11.07;;
15096;SDS011;7649;52.084;7.478;2023-02-07T02:26:31;18.50;;;12.47;;
15096;SDS011;7649;52.084;7.478;2023-02-07T02:35:06;15.00;;;11.53;;
15096;SDS011;7649;52.084;7.478;2023-02-07T02:37:39;15.40;;;11.60;;
15096;SDS011;7649;52.084;7.478;2023-02-07T02:40:11;17.40;;;12.03;;
15096;SDS011;7649;52.084;7.478;2023-02-07T02:42:41;18.13;;;12.47;;
15096;SDS011;7649;52.084;7.478;2023-02-07T02:45:11;17.40;;;11.77;;
15096;SDS011;7649;52.084;7.478;2023-02-07T02:47:42;21.63;;;12.07;;
15096;SDS011;7649;52.084;7.478;2023-02-07T02:50:14;17.23;;;11.83;;
15096;SDS011;7649;52.084;7.478;2023-02-07T02:52:42;17.37;;;12.50;;
15096;SDS011;7649;52.084;7.478;2023-02-07T02:55:16;19.90;;;11.87;;
15096;SDS011;7649;52.084;7.478;2023-02-07T02:57:54;15.63;;;12.17;;
15096;SDS011;7649;52.084;7.478;2023-02-07T03:00:33;15.70;;;12.00;;
15096;SDS011;7649;52.084;7.478;2023-02-07T03:03:07;17.27;;;12.50;;
15096;SDS011;7649;52.084;7.478;2023-02-07T03:05:42;16.43;;;12.03;;
15096;SDS011;7649;52.084;7.478;2023-02-07T03:08:17;19.33;;;13.10;;
15096;SDS011;7649;52.084;7.478;2023-02-07T03:10:47;16.27;;;11.87;;
15096;SDS011;7649;52.084;7.478;2023-02-07T03:13:17;17.87;;;12.07;;
15096;SDS011;7649;52.084;7.478;2023-02-07T03:15:52;18.47;;;12.27;;
15096;SDS011;7649;52.084;7.478;2023-02-07T03:18:24;19.57;;;12.40;;
15096;SDS011;7649;52.084;7.478;2023-02-07T03:20:57;18.33;;;11.80;;
15096;SDS011;7649;52.084;7.478;2023-02-07T03:23:28;16.37;;;12.20;;
15096;SDS011;7649;52.084;7.478;2023-02-07T03:25:57;15.17;;;12.57;;
15096;SDS011;7649;52.084;7.478;2023-02-07T03:28:27;20.47;;;12.37;;
15096;SDS011;7649;52.084;7.478;2023-02-07T03:30:57;17.03;;;12.40;;
15096;SDS011;7649;52.084;7.478;2023-02-07T03:33:27;16.67;;;12.53;;
15096;SDS011;7649;52.084;7.478;2023-02-07T03:35:59;17.17;;;12.60;;
15096;SDS011;7649;52.084;7.478;2023-02-07T03:38:31;16.23;;;12.13;;
15096;SDS011;7649;52.084;7.478;2023-02-07T03:41:00;16.63;;;11.60;;
15096;SDS011;7649;52.084;7.478;2023-02-07T03:43:30;19.07;;;12.23;;
15096;SDS011;7649;52.084;7.478;2023-02-07T03:45:59;18.47;;;12.07;;
15096;SDS011;7649;52.084;7.478;2023-02-07T03:48:28;17.37;;;12.10;;
15096;SDS011;7649;52.084;7.478;2023-02-07T03:50:57;17.83;;;12.33;;
15096;SDS011;7649;52.084;7.478;2023-02-07T03:53:26;16.37;;;11.97;;
15096;SDS011;7649;52.084;7.478;2023-02-07T03:55:54;19.53;;;12.57;;
15096;SDS011;7649;52.084;7.478;2023-02-07T03:58:22;18.30;;;12.73;;
15096;SDS011;7649;52.084;7.478;2023-02-07T04:00:51;18.40;;;12.50;;
15096;SDS011;7649;52.084;7.478;2023-02-07T04:03:19;16.30;;;12.37;;
15096;SDS011;7649;52.084;7.478;2023-02-07T04:05:47;17.27;;;12.50;;
15096;SDS011;7649;52.084;7.478;2023-02-07T04:08:17;16.97;;;12.27;;
15096;SDS011;7649;52.084;7.478;2023-02-07T04:10:55;15.70;;;11.87;;
15096;SDS011;7649;52.084;7.478;2023-02-07T04:13:23;19.37;;;13.13;;
15096;SDS011;7649;52.084;7.478;2023-02-07T04:15:51;17.77;;;12.43;;
15096;SDS011;7649;52.084;7.478;2023-02-07T04:18:20;14.00;;;11.70;;
15096;SDS011;7649;52.084;7.478;2023-02-07T04:20:49;13.23;;;11.77;;
15096;SDS011;7649;52.084;7.478;2023-02-07T04:23:18;17.23;;;12.30;;
15096;SDS011;7649;52.084;7.478;2023-02-07T04:25:47;16.50;;;12.30;;
15096;SDS011;7649;52.084;7.478;2023-02-07T04:28:15;13.67;;;11.30;;
15096;SDS011;7649;52.084;7.478;2023-02-07T04:30:43;14.77;;;11.57;;
15096;SDS011;7649;52.084;7.478;2023-02-07T04:33:12;14.63;;;11.23;;
15096;SDS011;7649;52.084;7.478;2023-02-07T04:35:40;13.97;;;11.63;;
15096;SDS011;7649;52.084;7.478;2023-02-07T04:38:08;14.53;;;11.57;;
15096;SDS011;7649;52.084;7.478;2023-02-07T04:40:38;13.43;;;11.07;;
15096;SDS011;7649;52.084;7.478;2023-02-07T04:43:07;14.03;;;11.10;;
15096;SDS011;7649;52.084;7.478;2023-02-07T04:45:35;14.60;;;11.50;;
15096;SDS011;7649;52.084;7.478;2023-02-07T04:48:04;16.53;;;11.50;;
15096;SDS011;7649;52.084;7.478;2023-02-07T04:50:32;14.67;;;11.70;;
15096;SDS011;7649;52.084;7.478;2023-02-07T04:53:06;16.23;;;12.10;;
15096;SDS011;7649;52.084;7.478;2023-02-07T04:55:52;13.57;;;11.47;;
15096;SDS011;7649;52.084;7.478;2023-02-07T04:58:21;14.33;;;11.73;;
15096;SDS011;7649;52.084;7.478;2023-02-07T05:00:50;17.67;;;11.53;;
15096;SDS011;7649;52.084;7.478;2023-02-07T05:03:19;14.63;;;11.70;;
15096;SDS011;7649;52.084;7.478;2023-02-07T05:05:47;14.87;;;11.37;;
15096;SDS011;7649;52.084;7.478;2023-02-07T05:08:16;14.07;;;11.17;;
15096;SDS011;7649;52.084;7.478;2023-02-07T05:10:45;15.40;;;11.60;;
15096;SDS011;7649;52.084;7.478;2023-02-07T05:13:15;17.17;;;11.50;;
15096;SDS011;7649;52.084;7.478;2023-02-07T05:15:43;19.30;;;12.53;;
15096;SDS011;7649;52.084;7.478;2023-02-07T05:18:11;15.07;;;10.97;;
15096;SDS011;7649;52.084;7.478;2023-02-07T05:20:40;17.93;;;12.73;;
15096;SDS011;7649;52.084;7.478;2023-02-07T05:23:08;17.07;;;12.47;;
15096;SDS011;7649;52.084;7.478;2023-02-07T05:25:36;18.03;;;12.03;;
15096;SDS011;7649;52.084;7.478;2023-02-07T05:28:05;15.10;;;11.40;;
15096;SDS011;7649;52.084;7.478;2023-02-07T05:30:34;16.23;;;11.17;;
15096;SDS011;7649;52.084;7.478;2023-02-07T05:33:03;15.87;;;12.33;;
15096;SDS011;7649;52.084;7.478;2023-02-07T05:35:30;17.97;;;12.33;;
15096;SDS011;7649;52.084;7.478;2023-02-07T05:37:59;18.70;;;11.50;;
15096;SDS011;7649;52.084;7.478;2023-02-07T05:40:27;19.13;;;11.43;;
15096;SDS011;7649;52.084;7.478;2023-02-07T05:42:55;15.10;;;11.90;;
15096;SDS011;7649;52.084;7.478;2023-02-07T05:45:24;15.73;;;12.20;;
15096;SDS011;7649;52.084;7.478;2023-02-07T05:47:53;16.93;;;12.17;;
15096;SDS011;7649;52.084;7.478;2023-02-07T05:50:22;15.90;;;12.43;;
15096;SDS011;7649;52.084;7.478;2023-02-07T05:52:50;19.93;;;13.20;;
15096;SDS011;7649;52.084;7.478;2023-02-07T05:55:19;14.57;;;11.27;;
15096;SDS011;7649;52.084;7.478;2023-02-07T05:57:47;17.30;;;12.93;;
15096;SDS011;7649;52.084;7.478;2023-02-07T06:00:16;17.67;;;12.80;;
15096;SDS011;7649;52.084;7.478;2023-02-07T06:02:45;15.90;;;11.87;;
15096;SDS011;7649;52.084;7.478;2023-02-07T06:05:16;17.27;;;13.13;;
15096;SDS011;7649;52.084;7.478;2023-02-07T06:07:45;18.47;;;13.77;;
15096;SDS011;7649;52.084;7.478;2023-02-07T06:10:14;13.83;;;11.53;;
15096;SDS011;7649;52.084;7.478;2023-02-07T06:12:42;17.43;;;13.47;;
15096;SDS011;7649;52.084;7.478;2023-02-07T06:15:14;19.83;;;13.67;;
15096;SDS011;7649;52.084;7.478;2023-02-07T06:17:42;19.20;;;13.77;;
15096;SDS011;7649;52.084;7.478;2023-02-07T06:20:11;20.43;;;14.63;;
15096;SDS011;7649;52.084;7.478;2023-02-07T06:22:41;29.33;;;19.17;;
15096;SDS011;7649;52.084;7.478;2023-02-07T06:25:09;20.87;;;14.10;;
15096;SDS011;7649;52.084;7.478;2023-02-07T06:27:38;17.73;;;14.47;;
15096;SDS011;7649;52.084;7.478;2023-02-07T06:30:07;18.03;;;14.27;;
15096;SDS011;7649;52.084;7.478;2023-02-07T06:32:35;20.43;;;14.73;;
15096;SDS011;7649;52.084;7.478;2023-02-07T06:35:04;17.60;;;13.73;;
15096;SDS011;7649;52.084;7.478;2023-02-07T06:37:33;19.70;;;14.33;;
15096;SDS011;7649;52.084;7.478;2023-02-07T06:40:03;18.77;;;12.90;;
15096;SDS011;7649;52.084;7.478;2023-02-07T06:42:32;18.37;;;13.80;;
15096;SDS011;7649;52.084;7.478;2023-02-07T06:45:00;19.00;;;13.73;;
15096;SDS011;7649;52.084;7.478;2023-02-07T06:47:28;23.70;;;15.87;;
15096;SDS011;7649;52.084;7.478;2023-02-07T06:49:56;22.20;;;14.77;;
15096;SDS011;7649;52.084;7.478;2023-02-07T06:52:28;20.43;;;15.90;;
15096;SDS011;7649;52.084;7.478;2023-02-07T06:54:56;19.83;;;14.97;;
15096;SDS011;7649;52.084;7.478;2023-02-07T06:57:26;19.07;;;14.10;;
15096;SDS011;7649;52.084;7.478;2023-02-07T06:59:54;21.43;;;14.33;;
15096;SDS011;7649;52.084;7.478;2023-02-07T07:02:23;17.13;;;13.43;;
15096;SDS011;7649;52.084;7.478;2023-02-07T07:04:51;17.77;;;14.00;;
15096;SDS011;7649;52.084;7.478;2023-02-07T07:07:20;18.10;;;14.07;;
15096;SDS011;7649;52.084;7.478;2023-02-07T07:09:48;20.57;;;14.50;;
15096;SDS011;7649;52.084;7.478;2023-02-07T07:12:17;18.73;;;14.63;;
15096;SDS011;7649;52.084;7.478;2023-02-07T07:14:46;21.57;;;15.73;;
15096;SDS011;7649;52.084;7.478;2023-02-07T07:17:15;17.17;;;13.80;;
15096;SDS011;7649;52.084;7.478;2023-02-07T07:19:43;20.23;;;14.20;;
15096;SDS011;7649;52.084;7.478;2023-02-07T07:22:12;19.67;;;13.83;;
15096;SDS011;7649;52.084;7.478;2023-02-07T07:24:40;20.27;;;14.57;;
15096;SDS011;7649;52.084;7.478;2023-02-07T07:27:08;20.37;;;14.53;;
15096;SDS011;7649;52.084;7.478;2023-02-07T07:29:37;19.73;;;14.77;;
15096;SDS011;7649;52.084;7.478;2023-02-07T07:32:09;18.80;;;15.50;;
15096;SDS011;7649;52.084;7.478;2023-02-07T07:34:53;24.90;;;16.43;;
15096;SDS011;7649;52.084;7.478;2023-02-07T07:37:22;29.40;;;19.30;;
15096;SDS011;7649;52.084;7.478;2023-02-07T07:39:50;22.90;;;15.77;;
15096;SDS011;7649;52.084;7.478;2023-02-07T07:42:19;21.23;;;16.17;;
15096;SDS011;7649;52.084;7.478;2023-02-07T07:44:47;23.60;;;16.37;;
15096;SDS011;7649;52.084;7.478;2023-02-07T07:47:17;21.33;;;16.00;;
15096;SDS011;7649;52.084;7.478;2023-02-07T07:49:45;20.17;;;15.93;;
15096;SDS011;7649;52.084;7.478;2023-02-07T07:52:16;25.50;;;17.73;;
15096;SDS011;7649;52.084;7.478;2023-02-07T07:54:44;23.57;;;18.43;;
15096;SDS011;7649;52.084;7.478;2023-02-07T07:57:13;23.63;;;18.10;;
15096;SDS011;7649;52.084;7.478;2023-02-07T07:59:41;27.43;;;19.80;;
15096;SDS011;7649;52.084;7.478;2023-02-07T08:02:10;24.60;;;17.50;;
15096;SDS011;7649;52.084;7.478;2023-02-07T08:04:40;25.00;;;14.50;;
15096;SDS011;7649;52.084;7.478;2023-02-07T08:07:09;17.17;;;14.00;;
15096;SDS011;7649;52.084;7.478;2023-02-07T08:09:37;15.70;;;13.63;;
15096;SDS011;7649;52.084;7.478;2023-02-07T08:12:06;19.50;;;13.73;;
15096;SDS011;7649;52.084;7.478;2023-02-07T08:14:34;20.40;;;14.43;;
15096;SDS011;7649;52.084;7.478;2023-02-07T08:17:02;17.70;;;15.10;;
15096;SDS011;7649;52.084;7.478;2023-02-07T08:19:30;16.80;;;13.77;;
15096;SDS011;7649;52.084;7.478;2023-02-07T08:22:00;16.00;;;13.47;;
15096;SDS011;7649;52.084;7.478;2023-02-07T08:24:28;14.03;;;11.40;;
15096;SDS011;7649;52.084;7.478;2023-02-07T08:26:57;15.80;;;12.03;;
15096;SDS011;7649;52.084;7.478;2023-02-07T08:29:25;12.93;;;11.60;;
15096;SDS011;7649;52.084;7.478;2023-02-07T08:31:53;11.87;;;10.17;;
15096;SDS011;7649;52.084;7.478;2023-02-07T08:34:21;12.60;;;10.03;;
15096;SDS011;7649;52.084;7.478;2023-02-07T08:36:51;12.57;;;10.00;;
15096;SDS011;7649;52.084;7.478;2023-02-07T08:39:21;11.03;;;9.40;;
15096;SDS011;7649;52.084;7.478;2023-02-07T08:41:49;13.17;;;9.20;;
15096;SDS011;7649;52.084;7.478;2023-02-07T08:44:18;12.20;;;8.43;;
15096;SDS011;7649;52.084;7.478;2023-02-07T08:46:46;12.27;;;8.93;;
15096;SDS011;7649;52.084;7.478;2023-02-07T08:49:14;12.00;;;9.40;;
15096;SDS011;7649;52.084;7.478;2023-02-07T08:51:42;10.47;;;8.93;;
15096;SDS011;7649;52.084;7.478;2023-02-07T08:54:11;10.73;;;9.10;;
15096;SDS011;7649;52.084;7.478;2023-02-07T08:56:40;9.17;;;8.27;;
15096;SDS011;7649;52.084;7.478;2023-02-07T08:59:09;10.10;;;8.70;;
15096;SDS011;7649;52.084;7.478;2023-02-07T09:01:37;9.93;;;8.93;;
15096;SDS011;7649;52.084;7.478;2023-02-07T09:04:05;9.30;;;7.97;;
15096;SDS011;7649;52.084;7.478;2023-02-07T09:06:35;10.37;;;8.67;;
15096;SDS011;7649;52.084;7.478;2023-02-07T09:09:03;9.87;;;7.77;;
15096;SDS011;7649;52.084;7.478;2023-02-07T09:11:32;10.07;;;8.50;;
15096;SDS011;7649;52.084;7.478;2023-02-07T09:14:02;10.07;;;8.80;;
15096;SDS011;7649;52.084;7.478;2023-02-07T09:16:30;9.60;;;8.13;;
15096;SDS011;7649;52.084;7.478;2023-02-07T09:18:59;9.90;;;7.80;;
15096;SDS011;7649;52.084;7.478;2023-02-07T09:21:27;9.27;;;7.53;;
15096;SDS011;7649;52.084;7.478;2023-02-07T09:23:56;9.17;;;7.70;;
15096;SDS011;7649;52.084;7.478;2023-02-07T09:26:25;12.37;;;8.20;;
15096;SDS011;7649;52.084;7.478;2023-02-07T09:28:54;8.90;;;8.00;;
15096;SDS011;7649;52.084;7.478;2023-02-07T09:31:24;8.97;;;8.07;;
15096;SDS011;7649;52.084;7.478;2023-02-07T09:33:52;9.23;;;8.33;;
15096;SDS011;7649;52.084;7.478;2023-02-07T09:36:21;9.13;;;8.23;;
15096;SDS011;7649;52.084;7.478;2023-02-07T09:38:50;9.33;;;8.33;;
15096;SDS011;7649;52.084;7.478;2023-02-07T09:41:21;9.80;;;8.70;;
15096;SDS011;7649;52.084;7.478;2023-02-07T09:43:57;9.80;;;8.80;;
15096;SDS011;7649;52.084;7.478;2023-02-07T09:46:29;9.03;;;7.90;;
15096;SDS011;7649;52.084;7.478;2023-02-07T09:49:00;8.13;;;7.33;;
15096;SDS011;7649;52.084;7.478;2023-02-07T09:51:30;8.30;;;7.50;;
15096;SDS011;7649;52.084;7.478;2023-02-07T09:54:00;8.73;;;7.33;;
15096;SDS011;7649;52.084;7.478;2023-02-07T09:56:29;9.87;;;7.70;;
15096;SDS011;7649;52.084;7.478;2023-02-07T09:58:59;8.70;;;7.80;;
15096;SDS011;7649;52.084;7.478;2023-02-07T10:01:33;8.97;;;8.07;;
15096;SDS011;7649;52.084;7.478;2023-02-07T10:04:11;9.77;;;7.20;;
15096;SDS011;7649;52.084;7.478;2023-02-07T10:06:42;9.33;;;7.77;;
15096;SDS011;7649;52.084;7.478;2023-02-07T10:09:13;8.23;;;7.43;;
15096;SDS011;7649;52.084;7.478;2023-02-07T10:11:43;9.10;;;7.53;;
15096;SDS011;7649;52.084;7.478;2023-02-07T10:14:19;8.47;;;7.47;;
15096;SDS011;7649;52.084;7.478;2023-02-07T10:16:56;8.27;;;7.27;;
15096;SDS011;7649;52.084;7.478;2023-02-07T10:19:31;8.07;;;7.27;;
15096;SDS011;7649;52.084;7.478;2023-02-07T10:22:05;8.07;;;7.00;;
15096;SDS011;7649;52.084;7.478;2023-02-07T10:24:43;8.50;;;7.57;;
15096;SDS011;7649;52.084;7.478;2023-02-07T10:27:20;8.07;;;7.27;;
15096;SDS011;7649;52.084;7.478;2023-02-07T10:29:53;8.50;;;7.60;;
15096;SDS011;7649;52.084;7.478;2023-02-07T10:32:24;8.00;;;7.17;;
15096;SDS011;7649;52.084;7.478;2023-02-07T10:34:54;8.20;;;6.87;;
15096;SDS011;7649;52.084;7.478;2023-02-07T10:37:23;7.90;;;7.10;;
15096;SDS011;7649;52.084;7.478;2023-02-07T10:39:53;7.70;;;7.00;;
15096;SDS011;7649;52.084;7.478;2023-02-07T10:42:25;8.47;;;7.27;;
15096;SDS011;7649;52.084;7.478;2023-02-07T10:44:54;8.53;;;7.60;;
15096;SDS011;7649;52.084;7.478;2023-02-07T10:47:24;8.30;;;7.50;;
15096;SDS011;7649;52.084;7.478;2023-02-07T10:49:53;7.50;;;6.80;;
15096;SDS011;7649;52.084;7.478;2023-02-07T10:52:26;8.53;;;6.93;;
15096;SDS011;7649;52.084;7.478;2023-02-07T10:54:56;7.40;;;6.70;;
15096;SDS011;7649;52.084;7.478;2023-02-07T10:57:25;7.57;;;6.80;;
15096;SDS011;7649;52.084;7.478;2023-02-07T10:59:57;6.67;;;6.07;;
15096;SDS011;7649;52.084;7.478;2023-02-07T11:02:38;11.90;;;7.20;;
15096;SDS011;7649;52.084;7.478;2023-02-07T11:07:54;5.97;;;5.37;;
15096;SDS011;7649;52.084;7.478;2023-02-07T11:10:23;7.37;;;5.80;;
15096;SDS011;7649;52.084;7.478;2023-02-07T11:12:53;5.83;;;5.33;;
15096;SDS011;7649;52.084;7.478;2023-02-07T11:15:23;6.23;;;5.67;;
15096;SDS011;7649;52.084;7.478;2023-02-07T11:17:54;6.10;;;5.50;;
15096;SDS011;7649;52.084;7.478;2023-02-07T11:20:25;5.90;;;5.27;;
15096;SDS011;7649;52.084;7.478;2023-02-07T11:22:54;5.70;;;5.20;;
15096;SDS011;7649;52.084;7.478;2023-02-07T11:25:26;5.60;;;5.00;;
15096;SDS011;7649;52.084;7.478;2023-02-07T11:27:55;5.13;;;4.70;;
15096;SDS011;7649;52.084;7.478;2023-02-07T11:30:23;4.77;;;4.37;;
15096;SDS011;7649;52.084;7.478;2023-02-07T11:32:56;5.27;;;4.83;;
15096;SDS011;7649;52.084;7.478;2023-02-07T11:35:25;4.87;;;4.40;;
15096;SDS011;7649;52.084;7.478;2023-02-07T11:37:58;4.83;;;4.43;;
15096;SDS011;7649;52.084;7.478;2023-02-07T11:40:29;4.23;;;3.93;;
15096;SDS011;7649;52.084;7.478;2023-02-07T11:43:08;4.57;;;4.17;;
15096;SDS011;7649;52.084;7.478;2023-02-07T11:45:38;5.07;;;4.37;;
15096;SDS011;7649;52.084;7.478;2023-02-07T11:48:15;5.03;;;4.63;;
15096;SDS011;7649;52.084;7.478;2023-02-07T11:50:44;6.30;;;5.03;;
15096;SDS011;7649;52.084;7.478;2023-02-07T11:53:18;5.10;;;4.27;;
15096;SDS011;7649;52.084;7.478;2023-02-07T11:55:50;7.90;;;4.70;;
15096;SDS011;7649;52.084;7.478;2023-02-07T11:58:20;6.53;;;5.23;;
15096;SDS011;7649;52.084;7.478;2023-02-07T12:00:50;5.33;;;4.90;;
15096;SDS011;7649;52.084;7.478;2023-02-07T12:03:23;4.97;;;4.47;;
15096;SDS011;7649;52.084;7.478;2023-02-07T12:05:53;5.20;;;4.17;;
15096;SDS011;7649;52.084;7.478;2023-02-07T12:08:23;5.97;;;4.67;;
15096;SDS011;7649;52.084;7.478;2023-02-07T12:10:53;6.20;;;4.97;;
15096;SDS011;7649;52.084;7.478;2023-02-07T12:13:22;4.73;;;4.30;;
15096;SDS011;7649;52.084;7.478;2023-02-07T12:15:53;5.70;;;4.93;;
15096;SDS011;7649;52.084;7.478;2023-02-07T12:18:26;8.20;;;4.70;;
15096;SDS011;7649;52.084;7.478;2023-02-07T12:20:56;5.40;;;5.00;;
15096;SDS011;7649;52.084;7.478;2023-02-07T12:23:26;5.00;;;4.50;;
15096;SDS011;7649;52.084;7.478;2023-02-07T12:26:12;5.17;;;4.67;;
15096;SDS011;7649;52.084;7.478;2023-02-07T12:28:43;5.83;;;5.00;;
15096;SDS011;7649;52.084;7.478;2023-02-07T12:31:14;5.40;;;4.90;;
15096;SDS011;7649;52.084;7.478;2023-02-07T12:33:49;5.77;;;5.27;;
15096;SDS011;7649;52.084;7.478;2023-02-07T12:36:19;8.37;;;5.67;;
15096;SDS011;7649;52.084;7.478;2023-02-07T12:38:50;5.37;;;4.87;;
15096;SDS011;7649;52.084;7.478;2023-02-07T12:41:22;5.70;;;5.20;;
15096;SDS011;7649;52.084;7.478;2023-02-07T12:43:58;5.80;;;5.20;;
15096;SDS011;7649;52.084;7.478;2023-02-07T12:46:34;5.73;;;5.20;;
15096;SDS011;7649;52.084;7.478;2023-02-07T12:51:50;7.77;;;5.20;;
15096;SDS011;7649;52.084;7.478;2023-02-07T12:54:27;6.37;;;5.77;;
15096;SDS011;7649;52.084;7.478;2023-02-07T12:57:03;7.77;;;5.33;;
15096;SDS011;7649;52.084;7.478;2023-02-07T12:59:36;29.80;;;7.70;;
15096;SDS011;7649;52.084;7.478;2023-02-07T13:02:13;7.70;;;5.90;;
15096;SDS011;7649;52.084;7.478;2023-02-07T13:04:57;55.43;;;10.67;;
15096;SDS011;7649;52.084;7.478;2023-02-07T13:07:37;6.23;;;5.40;;
15096;SDS011;7649;52.084;7.478;2023-02-07T13:10:11;5.80;;;5.30;;
15096;SDS011;7649;52.084;7.478;2023-02-07T13:12:45;6.10;;;5.00;;
15096;SDS011;7649;52.084;7.478;2023-02-07T13:15:18;10.73;;;5.93;;
15096;SDS011;7649;52.084;7.478;2023-02-07T13:17:50;6.87;;;5.67;;
15096;SDS011;7649;52.084;7.478;2023-02-07T13:20:24;10.23;;;6.07;;
15096;SDS011;7649;52.084;7.478;2023-02-07T13:22:56;8.40;;;5.77;;
15096;SDS011;7649;52.084;7.478;2023-02-07T13:25:26;8.40;;;5.20;;
15096;SDS011;7649;52.084;7.478;2023-02-07T13:27:57;7.43;;;5.30;;
15096;SDS011;7649;52.084;7.478;2023-02-07T13:30:26;5.20;;;4.80;;
15096;SDS011;7649;52.084;7.478;2023-02-07T13:32:57;5.30;;;4.80;;
15096;SDS011;7649;52.084;7.478;2023-02-07T13:35:27;5.27;;;4.77;;
15096;SDS011;7649;52.084;7.478;2023-02-07T13:38:01;7.63;;;5.20;;
15096;SDS011;7649;52.084;7.478;2023-02-07T13:40:34;6.47;;;5.37;;
15096;SDS011;7649;52.084;7.478;2023-02-07T13:43:05;8.30;;;5.27;;
15096;SDS011;7649;52.084;7.478;2023-02-07T13:45:37;6.20;;;5.60;;
15096;SDS011;7649;52.084;7.478;2023-02-07T13:48:08;5.93;;;4.93;;
15096;SDS011;7649;52.084;7.478;2023-02-07T13:50:44;6.73;;;5.20;;
15096;SDS011;7649;52.084;7.478;2023-02-07T13:53:26;8.70;;;5.30;;
15096;SDS011;7649;52.084;7.478;2023-02-07T13:55:59;7.53;;;5.50;;
15096;SDS011;7649;52.084;7.478;2023-02-07T13:58:51;5.63;;;5.10;;
15096;SDS011;7649;52.084;7.478;2023-02-07T14:01:38;6.03;;;5.27;;
15096;SDS011;7649;52.084;7.478;2023-02-07T14:04:13;11.23;;;5.90;;
15096;SDS011;7649;52.084;7.478;2023-02-07T14:06:42;5.20;;;4.80;;
15096;SDS011;7649;52.084;7.478;2023-02-07T14:09:15;5.57;;;5.07;;
15096;SDS011;7649;52.084;7.478;2023-02-07T14:11:45;5.27;;;4.50;;
15096;SDS011;7649;52.084;7.478;2023-02-07T14:14:15;5.70;;;5.20;;
15096;SDS011;7649;52.084;7.478;2023-02-07T14:16:50;7.57;;;4.90;;
15096;SDS011;7649;52.084;7.478;2023-02-07T14:22:13;8.37;;;5.77;;
15096;SDS011;7649;52.084;7.478;2023-02-07T14:24:48;6.13;;;5.20;;
15096;SDS011;7649;52.084;7.478;2023-02-07T14:30:08;6.77;;;4.77;;
15096;SDS011;7649;52.084;7.478;2023-02-07T14:32:44;6.13;;;4.80;;
15096;SDS011;7649;52.084;7.478;2023-02-07T14:35:31;5.17;;;4.67;;
15096;SDS011;7649;52.084;7.478;2023-02-07T14:38:01;17.43;;;6.53;;
15096;SDS011;7649;52.084;7.478;2023-02-07T14:40:33;7.07;;;4.93;;
15096;SDS011;7649;52.084;7.478;2023-02-07T14:43:03;5.73;;;4.90;;
15096;SDS011;7649;52.084;7.478;2023-02-07T14:45:34;5.20;;;4.67;;
15096;SDS011;7649;52.084;7.478;2023-02-07T14:48:03;6.33;;;5.23;;
15096;SDS011;7649;52.084;7.478;2023-02-07T14:50:32;5.27;;;4.77;;
15096;SDS011;7649;52.084;7.478;2023-02-07T14:53:01;7.40;;;5.00;;
15096;SDS011;7649;52.084;7.478;2023-02-07T14:55:33;9.27;;;5.90;;
15096;SDS011;7649;52.084;7.478;2023-02-07T14:58:04;7.03;;;5.00;;
15096;SDS011;7649;52.084;7.478;2023-02-07T15:00:36;10.90;;;5.77;;
15096;SDS011;7649;52.084;7.478;2023-02-07T15:03:09;5.50;;;5.00;;
15096;SDS011;7649;52.084;7.478;2023-02-07T15:05:47;6.00;;;4.83;;
15096;SDS011;7649;52.084;7.478;2023-02-07T15:08:18;6.37;;;5.07;;
15096;SDS011;7649;52.084;7.478;2023-02-07T15:10:53;6.93;;;5.57;;
15096;SDS011;7649;52.084;7.478;2023-02-07T15:13:23;5.07;;;4.57;;
15096;SDS011;7649;52.084;7.478;2023-02-07T15:15:53;7.00;;;5.70;;
15096;SDS011;7649;52.084;7.478;2023-02-07T15:18:24;6.47;;;5.87;;
15096;SDS011;7649;52.084;7.478;2023-02-07T15:20:54;33.57;;;8.00;;
15096;SDS011;7649;52.084;7.478;2023-02-07T15:23:24;6.13;;;5.53;;
15096;SDS011;7649;52.084;7.478;2023-02-07T15:25:55;7.87;;;5.17;;